Time;durP1;ratioP1;P1;durP2;ratioP2;P2;SDS_P1;SDS_P2;PMS_P1;PMS_P2;Temp;Humidity;BMP_temperature;BMP_pressure;BME280_temperature;BME280_humidity;BME280_pressure;Samples;Min_cycle;Max_cycle;Signal;HPM_P1;HPM_P2
2021/07/25 00:00:10;;;;;;;10.93;7.40;;;;;;;23.97;100.00;101149.00;4981353;28;20033;-72
2021/07/25 00:02:56;;;;;;;13.95;7.05;;;;;;;23.93;100.00;101145.66;4994348;28;20023;-73
2021/07/25 00:05:42;;;;;;;9.75;7.40;;;;;;;23.95;100.00;101140.22;4994544;28;20031;-72
2021/07/25 00:08:28;;;;;;;9.70;7.53;;;;;;;23.48;100.00;101132.56;4994237;28;20117;-72
2021/07/25 00:11:17;;;;;;;11.40;7.50;;;;;;;23.60;100.00;101142.47;4995027;28;20034;-73
2021/07/25 00:14:04;;;;;;;9.85;6.93;;;;;;;23.82;100.00;101134.75;4994107;28;20032;-72
2021/07/25 00:16:50;;;;;;;9.07;7.10;;;;;;;24.00;100.00;101136.28;4994707;28;20054;-72
2021/07/25 00:19:36;;;;;;;10.45;7.20;;;;;;;23.92;100.00;101143.97;4993618;28;20448;-72
2021/07/25 00:22:22;;;;;;;12.30;7.13;;;;;;;23.97;100.00;101143.63;4994050;28;20458;-72
2021/07/25 00:25:08;;;;;;;10.60;7.03;;;;;;;23.88;100.00;101139.72;4980774;28;20030;-72
2021/07/25 00:27:57;;;;;;;13.18;7.50;;;;;;;23.72;100.00;101140.81;4984750;28;20105;-72
2021/07/25 00:30:43;;;;;;;10.90;7.05;;;;;;;23.59;100.00;101143.44;4997767;28;20040;-72
2021/07/25 00:33:31;;;;;;;8.10;6.85;;;;;;;23.79;100.00;101140.31;4997632;28;20037;-73
2021/07/25 00:36:17;;;;;;;10.48;7.10;;;;;;;23.29;100.00;101143.56;4998337;28;20392;-72
2021/07/25 00:39:02;;;;;;;16.42;7.28;;;;;;;23.50;100.00;101152.03;4996940;28;20022;-72
2021/07/25 00:41:49;;;;;;;13.05;7.40;;;;;;;23.77;100.00;101136.88;4997560;28;20154;-71
2021/07/25 00:44:34;;;;;;;9.25;7.18;;;;;;;23.07;100.00;101136.97;4984112;28;20061;-72
2021/07/25 00:47:20;;;;;;;12.05;7.57;;;;;;;23.40;100.00;101146.41;4997650;28;20033;-72
2021/07/25 00:50:08;;;;;;;11.10;7.43;;;;;;;23.76;100.00;101136.97;4996684;28;20462;-72
2021/07/25 00:52:53;;;;;;;17.02;8.40;;;;;;;23.79;100.00;101140.31;4983779;28;20089;-72
2021/07/25 00:55:41;;;;;;;12.45;7.40;;;;;;;23.63;100.00;101142.28;4996512;28;20041;-73
2021/07/25 00:58:27;;;;;;;11.52;7.72;;;;;;;23.50;100.00;101146.69;4983994;28;20336;-72
2021/07/25 01:01:14;;;;;;;11.13;7.55;;;;;;;23.83;100.00;101141.81;4996823;28;20027;-72
2021/07/25 01:04:06;;;;;;;14.77;7.60;;;;;;;23.79;100.00;101150.16;4997774;28;20032;-72
2021/07/25 01:07:01;;;;;;;12.60;7.97;;;;;;;23.71;100.00;101152.50;4996514;28;20038;-72
2021/07/25 01:10:10;;;;;;;8.68;7.25;;;;;;;23.55;100.00;101157.97;4996935;28;20026;-71
2021/07/25 01:13:03;;;;;;;9.90;7.40;;;;;;;23.50;100.00;101151.19;4997368;28;20065;-72
2021/07/25 01:15:50;;;;;;;9.23;7.40;;;;;;;23.30;100.00;101155.97;4996659;28;20062;-72
2021/07/25 01:18:46;;;;;;;10.05;6.45;;;;;;;23.38;100.00;101159.03;4997415;28;20061;-72
2021/07/25 01:21:32;;;;;;;10.20;7.00;;;;;;;23.15;100.00;101159.56;4983169;28;20030;-72
2021/07/25 01:24:18;;;;;;;9.13;6.80;;;;;;;23.08;100.00;101160.91;4996648;28;20109;-72
2021/07/25 01:27:08;;;;;;;9.65;6.97;;;;;;;23.08;100.00;101158.22;4996343;28;20034;-72
2021/07/25 01:29:57;;;;;;;10.45;6.60;;;;;;;23.16;100.00;101169.31;4996418;28;20031;-72
2021/07/25 01:32:44;;;;;;;9.98;6.95;;;;;;;23.19;100.00;101165.59;4983487;28;20030;-72
2021/07/25 01:35:31;;;;;;;8.68;6.97;;;;;;;23.26;100.00;101167.81;4996529;28;20100;-72
2021/07/25 01:38:17;;;;;;;12.40;7.70;;;;;;;23.16;100.00;101166.63;4994915;28;20026;-73
2021/07/25 01:41:10;;;;;;;11.18;7.68;;;;;;;22.97;100.00;101174.09;4996832;28;20508;-72
2021/07/25 01:43:56;;;;;;;11.57;7.60;;;;;;;23.26;100.00;101169.63;4995811;28;20040;-72
2021/07/25 01:46:41;;;;;;;12.32;7.80;;;;;;;23.39;100.00;101168.78;4983325;28;20057;-72
2021/07/25 01:49:27;;;;;;;14.82;8.13;;;;;;;23.01;100.00;101166.72;4995684;28;20093;-72
2021/07/25 01:52:13;;;;;;;17.33;8.85;;;;;;;22.89;100.00;101171.03;4983231;28;20121;-71
2021/07/25 01:54:59;;;;;;;15.43;8.70;;;;;;;23.00;100.00;101173.03;4995953;28;20022;-71
2021/07/25 01:57:45;;;;;;;18.63;10.45;;;;;;;22.79;100.00;101169.84;4995510;28;20037;-71
2021/07/25 02:00:30;;;;;;;17.45;10.52;;;;;;;22.80;100.00;101168.03;4996731;28;20022;-72
2021/07/25 02:03:24;;;;;;;16.60;10.73;;;;;;;22.63;100.00;101170.88;4996429;28;20057;-72
2021/07/25 02:06:10;;;;;;;15.95;10.10;;;;;;;22.51;100.00;101169.78;4996216;28;20340;-72
2021/07/25 02:08:55;;;;;;;13.07;9.45;;;;;;;22.45;100.00;101169.25;4981991;28;20108;-71
2021/07/25 02:11:41;;;;;;;16.13;8.57;;;;;;;22.63;100.00;101168.22;4995969;28;20026;-72
2021/07/25 02:14:27;;;;;;;18.95;9.25;;;;;;;22.92;100.00;101173.53;4995164;28;20025;-72
2021/07/25 02:17:13;;;;;;;12.57;8.85;;;;;;;22.93;100.00;101180.56;4995200;28;20085;-72
2021/07/25 02:19:58;;;;;;;10.65;8.20;;;;;;;22.81;100.00;101177.78;4995327;28;20374;-72
2021/07/25 02:22:44;;;;;;;15.55;9.00;;;;;;;22.77;100.00;101185.13;4995497;28;20367;-72
2021/07/25 02:25:30;;;;;;;15.02;9.10;;;;;;;23.02;100.00;101181.81;4994969;28;20070;-72
2021/07/25 02:28:16;;;;;;;13.02;8.98;;;;;;;22.86;100.00;101181.88;4995464;28;20026;-72
2021/07/25 02:31:02;;;;;;;11.98;9.18;;;;;;;22.74;100.00;101179.09;4995618;28;20473;-72
2021/07/25 02:33:48;;;;;;;14.73;9.90;;;;;;;22.92;100.00;101186.00;4996079;28;20030;-72
2021/07/25 02:36:33;;;;;;;16.30;10.68;;;;;;;22.41;100.00;101173.06;4982511;28;20076;-72
2021/07/25 02:39:19;;;;;;;13.02;9.30;;;;;;;22.47;100.00;101172.75;4995188;28;20026;-72
2021/07/25 02:42:05;;;;;;;14.98;8.75;;;;;;;22.14;100.00;101180.88;4996380;28;20098;-72
2021/07/25 02:44:51;;;;;;;11.38;8.55;;;;;;;22.14;100.00;101180.88;4995069;28;20579;-72
2021/07/25 02:47:37;;;;;;;12.90;8.35;;;;;;;22.07;100.00;101197.34;4982217;28;20022;-72
2021/07/25 02:50:22;;;;;;;12.93;8.10;;;;;;;22.21;100.00;101192.91;4994230;28;20030;-72
2021/07/25 02:53:08;;;;;;;10.73;8.07;;;;;;;22.11;100.00;101196.22;4981644;28;20026;-72
2021/07/25 02:55:54;;;;;;;11.43;7.45;;;;;;;22.30;100.00;101195.03;4994282;28;20061;-72
2021/07/25 02:58:40;;;;;;;9.00;7.70;;;;;;;22.33;100.00;101188.66;4996438;28;20367;-72
2021/07/25 03:01:26;;;;;;;13.18;8.65;;;;;;;22.17;100.00;101198.50;4994436;28;20026;-72
2021/07/25 03:04:11;;;;;;;14.60;8.70;;;;;;;22.23;100.00;101196.34;4994550;28;20065;-72
2021/07/25 03:06:57;;;;;;;16.42;9.55;;;;;;;22.22;100.00;101191.97;4995078;28;20032;-72
2021/07/25 03:09:43;;;;;;;13.70;9.48;;;;;;;22.15;100.00;101193.25;4994733;28;20034;-72
2021/07/25 03:12:28;;;;;;;16.77;10.60;;;;;;;22.03;100.00;101206.47;4994781;28;20022;-72
2021/07/25 03:15:14;;;;;;;15.70;10.05;;;;;;;21.95;100.00;101201.53;4995095;28;20468;-72
2021/07/25 03:18:00;;;;;;;17.45;12.07;;;;;;;22.32;100.00;101203.84;4956805;28;20043;-72
2021/07/25 03:20:46;;;;;;;15.57;11.50;;;;;;;22.14;100.00;101210.22;4956976;28;20472;-72
2021/07/25 03:23:33;;;;;;;19.27;12.38;;;;;;;21.96;100.00;101205.06;4956771;28;20027;-72
2021/07/25 03:26:18;;;;;;;25.77;16.80;;;;;;;22.34;100.00;101199.25;4954991;29;20023;-72
2021/07/25 03:29:05;;;;;;;32.08;18.75;;;;;;;22.41;100.00;101194.41;4957019;28;20031;-72
2021/07/25 03:31:50;;;;;;;24.13;18.25;;;;;;;22.25;100.00;101193.59;4956192;28;20459;-72
2021/07/25 03:34:36;;;;;;;25.15;16.10;;;;;;;22.49;100.00;101197.53;4955900;29;20023;-72
2021/07/25 03:37:23;;;;;;;20.58;12.93;;;;;;;22.27;100.00;101199.72;4956660;28;20031;-72
2021/07/25 03:40:09;;;;;;;16.00;11.45;;;;;;;22.42;100.00;101199.69;4957381;28;20031;-72
2021/07/25 03:42:56;;;;;;;13.98;10.75;;;;;;;22.37;100.00;101206.22;4957543;28;20432;-72
2021/07/25 03:45:44;;;;;;;14.90;8.32;;;;;;;22.22;100.00;101207.13;4956916;28;20040;-72
2021/07/25 03:48:30;;;;;;;13.30;8.38;;;;;;;22.12;100.00;101211.25;4956066;29;20053;-72
2021/07/25 03:51:15;;;;;;;16.17;9.82;;;;;;;21.95;100.00;101222.88;4956760;28;20036;-72
2021/07/25 03:54:03;;;;;;;12.45;9.43;;;;;;;21.84;100.00;101213.78;4956730;28;20087;-73
2021/07/25 03:56:49;;;;;;;18.10;11.20;;;;;;;21.82;100.00;101213.00;4954994;29;20046;-71
2021/07/25 03:59:36;;;;;;;16.08;10.88;;;;;;;22.07;100.00;101221.34;4955380;29;20027;-72
2021/07/25 04:02:21;;;;;;;16.23;11.45;;;;;;;22.16;100.00;101229.69;4959057;28;20027;-72
2021/07/25 04:05:08;;;;;;;16.33;11.68;;;;;;;22.03;100.00;101228.66;4960449;28;20443;-72
2021/07/25 04:07:54;;;;;;;16.95;12.57;;;;;;;21.94;100.00;101231.00;4959905;28;20114;-72
2021/07/25 04:10:44;;;;;;;17.00;11.38;;;;;;;22.16;100.00;101227.03;4960784;28;20031;-72
2021/07/25 04:13:30;;;;;;;19.20;13.55;;;;;;;22.18;100.00;101225.13;4960604;28;20489;-72
2021/07/25 04:16:16;;;;;;;21.85;15.27;;;;;;;22.10;100.00;101230.03;4974925;28;20054;-72
2021/07/25 04:19:02;;;;;;;18.70;13.82;;;;;;;22.46;100.00;101222.63;4999080;28;20030;-72
2021/07/25 04:21:48;;;;;;;28.52;17.67;;;;;;;22.45;100.00;101228.00;4997985;28;20102;-72
2021/07/25 04:24:33;;;;;;;26.70;18.90;;;;;;;22.51;100.00;101225.03;4998862;28;20026;-72
2021/07/25 04:27:19;;;;;;;25.27;18.20;;;;;;;22.47;100.00;101229.66;4998362;28;20370;-72
2021/07/25 04:30:06;;;;;;;28.67;17.10;;;;;;;22.58;100.00;101239.72;4998828;28;20072;-72
2021/07/25 04:32:52;;;;;;;21.60;15.88;;;;;;;22.59;100.00;101241.47;4997750;28;20032;-72
2021/07/25 04:35:39;;;;;;;23.42;16.17;;;;;;;22.67;100.00;101234.69;4998092;28;20076;-73
2021/07/25 04:38:25;;;;;;;19.00;14.85;;;;;;;22.53;100.00;101242.69;4997807;28;20031;-73
2021/07/25 04:41:12;;;;;;;22.13;15.43;;;;;;;22.34;100.00;101246.47;4997797;28;20022;-72
2021/07/25 04:44:13;;;;;;;25.15;16.00;;;;;;;22.23;100.00;101249.75;4997365;28;20459;-72
2021/07/25 04:47:03;;;;;;;25.65;15.75;;;;;;;22.80;100.00;101240.19;4998297;28;20046;-72
2021/07/25 04:50:02;;;;;;;25.45;17.35;;;;;;;22.61;100.00;101235.06;4996974;28;20482;-71
2021/07/25 04:52:52;;;;;;;24.90;17.33;;;;;;;23.00;100.00;101245.22;4984400;28;20037;-72
2021/07/25 04:55:37;;;;;;;26.55;17.08;;;;;;;22.97;100.00;101246.25;4997402;28;20029;-72
2021/07/25 04:58:39;;;;;;;26.67;18.17;;;;;;;23.11;100.00;101246.25;4997453;28;20113;-73
2021/07/25 05:01:35;;;;;;;27.40;17.63;;;;;;;23.26;100.00;101247.19;4997589;28;20038;-72
2021/07/25 05:04:22;;;;;;;28.13;19.45;;;;;;;22.87;100.00;101249.56;4998309;28;20404;-73
2021/07/25 05:07:12;;;;;;;23.70;17.55;;;;;;;23.21;100.00;101246.59;4997671;28;20362;-72
2021/07/25 05:09:58;;;;;;;26.42;17.73;;;;;;;23.80;100.00;101253.59;4997412;28;20371;-73
2021/07/25 05:13:07;;;;;;;22.52;17.38;;;;;;;23.48;100.00;101259.13;4996451;28;20034;-72
2021/07/25 05:15:54;;;;;;;22.23;17.55;;;;;;;24.10;100.00;101262.38;4997531;28;20391;-72
2021/07/25 05:18:46;;;;;;;29.80;18.70;;;;;;;24.20;100.00;101264.34;4997268;28;20034;-72
2021/07/25 05:21:38;;;;;;;27.58;19.77;;;;;;;24.16;100.00;101267.31;4996868;28;20315;-71
2021/07/25 05:24:27;;;;;;;32.08;22.50;;;;;;;23.79;100.00;101259.91;4997470;28;20546;-71
2021/07/25 05:27:20;;;;;;;40.33;23.00;;;;;;;23.42;100.00;101264.88;4996599;28;20057;-72
2021/07/25 05:30:07;;;;;;;31.70;22.00;;;;;;;23.51;100.00;101268.81;4996907;28;20030;-73
2021/07/25 05:32:52;;;;;;;30.13;23.83;;;;;;;23.62;100.00;101260.09;4996564;28;20473;-73
2021/07/25 05:35:38;;;;;;;32.97;23.13;;;;;;;23.62;100.00;101260.94;4997575;28;20031;-72
2021/07/25 05:38:24;;;;;;;33.17;23.20;;;;;;;23.70;100.00;101269.34;4983458;28;20180;-73
2021/07/25 05:41:10;;;;;;;28.92;20.58;;;;;;;23.74;100.00;101268.22;4997604;28;20470;-73
2021/07/25 05:43:56;;;;;;;32.10;21.58;;;;;;;23.30;100.00;101270.97;4996805;28;20041;-71
2021/07/25 05:46:41;;;;;;;29.75;21.50;;;;;;;23.91;100.00;101267.16;4996451;28;20455;-72
2021/07/25 05:49:27;;;;;;;31.85;21.30;;;;;;;23.73;100.00;101265.63;4996166;28;20026;-72
2021/07/25 05:52:13;;;;;;;28.05;20.55;;;;;;;24.28;100.00;101267.41;4983793;28;20057;-72
2021/07/25 05:54:59;;;;;;;27.05;20.20;;;;;;;24.43;100.00;101269.03;4997011;28;20067;-72
2021/07/25 05:57:45;;;;;;;32.00;20.63;;;;;;;24.43;100.00;101269.03;4996438;28;20041;-73
2021/07/25 06:00:31;;;;;;;32.03;20.45;;;;;;;24.59;100.00;101276.94;4996801;28;20049;-72
2021/07/25 06:03:16;;;;;;;27.05;19.08;;;;;;;24.53;100.00;101266.63;4982416;28;20042;-72
2021/07/25 06:06:06;;;;;;;29.77;19.77;;;;;;;25.19;100.00;101278.22;4996365;28;20030;-72
2021/07/25 06:08:52;;;;;;;32.65;20.08;;;;;;;24.91;100.00;101273.00;4982360;28;20105;-72
2021/07/25 06:11:38;;;;;;;24.67;18.83;;;;;;;25.26;100.00;101287.53;4996586;28;20104;-72
2021/07/25 06:14:25;;;;;;;33.25;23.52;;;;;;;25.38;100.00;101292.06;4995976;28;20054;-72
2021/07/25 06:17:11;;;;;;;32.65;23.83;;;;;;;24.94;100.00;101291.53;4981726;28;20058;-72
2021/07/25 06:19:57;;;;;;;33.70;23.90;;;;;;;25.17;100.00;101291.72;4995796;28;20050;-72
2021/07/25 06:22:45;;;;;;;41.10;25.92;;;;;;;25.24;100.00;101300.19;4996133;28;20030;-72
2021/07/25 06:25:33;;;;;;;37.58;25.70;;;;;;;25.46;100.00;101297.75;4995896;28;20026;-72
2021/07/25 06:28:19;;;;;;;35.05;23.13;;;;;;;25.34;100.00;101295.94;4996358;28;20450;-73
2021/07/25 06:31:05;;;;;;;28.38;21.70;;;;;;;25.76;100.00;101299.16;4982337;28;20023;-72
2021/07/25 06:33:50;;;;;;;27.63;19.58;;;;;;;25.57;100.00;101301.44;4995820;28;20026;-73
2021/07/25 06:36:36;;;;;;;25.38;17.50;;;;;;;25.73;100.00;101295.84;4996059;28;20027;-73
2021/07/25 06:39:22;;;;;;;22.15;15.30;;;;;;;25.59;100.00;101299.50;4995330;28;20018;-73
2021/07/25 06:42:08;;;;;;;24.27;13.63;;;;;;;25.73;100.00;101295.84;4996117;28;20118;-73
2021/07/25 06:44:54;;;;;;;22.77;14.02;;;;;;;26.04;100.00;101295.41;4981557;28;20057;-73
2021/07/25 06:47:40;;;;;;;22.67;12.57;;;;;;;25.99;100.00;101289.47;4995850;28;20033;-73
2021/07/25 06:50:30;;;;;;;28.50;15.98;;;;;;;26.26;100.00;101295.53;4995418;28;20470;-73
2021/07/25 06:53:17;;;;;;;21.05;14.13;;;;;;;26.44;100.00;101296.88;4996043;28;20038;-73
2021/07/25 06:56:05;;;;;;;27.58;15.27;;;;;;;26.58;100.00;101297.63;4981263;28;20061;-73
2021/07/25 06:58:50;;;;;;;22.70;14.93;;;;;;;26.20;100.00;101296.00;4982343;28;20026;-72
2021/07/25 07:01:36;;;;;;;24.23;15.70;;;;;;;26.18;100.00;101297.94;4981593;28;20509;-73
2021/07/25 07:04:22;;;;;;;23.50;13.80;;;;;;;26.50;100.00;101299.09;4995312;28;20129;-72
2021/07/25 07:07:08;;;;;;;26.70;14.57;;;;;;;26.75;100.00;101299.03;4995104;28;20026;-72
2021/07/25 07:09:54;;;;;;;25.85;15.70;;;;;;;26.88;100.00;101297.97;4994888;28;20109;-72
2021/07/25 07:12:40;;;;;;;29.90;15.40;;;;;;;26.81;100.00;101298.56;4995045;28;20080;-72
2021/07/25 07:15:27;;;;;;;31.15;15.65;;;;;;;27.10;100.00;101299.91;4995371;28;20092;-72
2021/07/25 07:18:13;;;;;;;30.55;16.20;;;;;;;27.25;100.00;101296.06;4995131;28;20415;-72
2021/07/25 07:20:59;;;;;;;32.88;15.73;;;;;;;27.16;100.00;101302.97;4994777;28;20104;-72
2021/07/25 07:23:44;;;;;;;30.00;16.13;;;;;;;27.01;100.00;101300.63;4995348;28;20030;-72
2021/07/25 07:26:30;;;;;;;27.63;14.80;;;;;;;27.28;100.00;101301.19;4994792;28;20068;-72
2021/07/25 07:29:16;;;;;;;29.98;14.60;;;;;;;28.08;100.00;101308.28;4995341;28;20068;-72
2021/07/25 07:32:02;;;;;;;25.90;13.68;;;;;;;27.91;100.00;101306.94;4995063;28;20026;-72
2021/07/25 07:34:48;;;;;;;20.48;13.48;;;;;;;27.96;100.00;101307.41;4994771;28;20072;-73
2021/07/25 07:37:33;;;;;;;25.85;11.63;;;;;;;28.43;100.00;101312.53;4994764;28;20110;-72
2021/07/25 07:40:19;;;;;;;22.15;10.88;;;;;;;28.59;97.44;101302.22;4994915;28;20022;-72
2021/07/25 07:43:08;;;;;;;30.80;12.73;;;;;;;28.37;100.00;101318.38;4995489;28;20026;-72
2021/07/25 07:45:54;;;;;;;21.50;12.13;;;;;;;28.42;100.00;101318.94;4994564;28;20135;-72
2021/07/25 07:48:39;;;;;;;22.35;12.15;;;;;;;29.40;99.90;101318.66;4994296;28;20050;-72
2021/07/25 07:51:25;;;;;;;26.27;13.25;;;;;;;29.06;100.00;101319.84;4994304;28;20037;-72
2021/07/25 07:54:11;;;;;;;28.30;13.07;;;;;;;29.05;100.00;101327.06;4994769;28;20022;-72
2021/07/25 07:56:57;;;;;;;27.90;12.52;;;;;;;28.80;100.00;101322.00;4994422;28;20036;-72
2021/07/25 07:59:42;;;;;;;33.75;12.43;;;;;;;29.34;94.63;101322.78;4994919;28;20089;-72
2021/07/25 08:02:28;;;;;;;26.17;11.18;;;;;;;29.47;94.77;101328.81;4994648;28;20030;-72
2021/07/25 08:05:15;;;;;;;23.65;10.52;;;;;;;29.53;95.02;101322.88;4994520;28;20457;-72
2021/07/25 08:08:01;;;;;;;18.00;10.02;;;;;;;30.07;86.32;101334.28;4994359;28;20034;-72
2021/07/25 08:10:47;;;;;;;17.88;9.88;;;;;;;29.78;88.31;101337.84;4994565;28;20359;-72
2021/07/25 08:13:33;;;;;;;17.30;10.07;;;;;;;29.82;89.42;101339.28;4994763;28;20029;-72
2021/07/25 08:16:18;;;;;;;16.65;8.55;;;;;;;30.18;84.17;101336.91;4994363;28;20077;-72
2021/07/25 08:19:04;;;;;;;19.30;8.98;;;;;;;30.25;79.71;101339.91;4994141;28;20481;-72
2021/07/25 08:21:50;;;;;;;16.27;9.10;;;;;;;30.34;80.13;101337.25;4994237;28;20045;-73
2021/07/25 08:24:39;;;;;;;13.00;8.13;;;;;;;30.52;76.59;101345.53;4994178;28;20057;-71
2021/07/25 08:27:24;;;;;;;19.73;8.00;;;;;;;31.00;72.36;101333.84;4994067;28;20474;-72
2021/07/25 08:30:11;;;;;;;10.05;7.40;;;;;;;31.49;70.13;101335.50;4994502;28;20034;-71
2021/07/25 08:32:56;;;;;;;12.73;7.15;;;;;;;31.33;67.38;101342.53;4994720;28;20030;-71
2021/07/25 08:35:42;;;;;;;11.25;7.07;;;;;;;31.30;63.50;101344.53;4980680;28;20031;-71
2021/07/25 08:38:28;;;;;;;10.98;6.95;;;;;;;31.16;64.01;101344.06;4993555;28;20018;-71
2021/07/25 08:41:15;;;;;;;9.95;6.65;;;;;;;30.94;63.03;101345.22;4995124;28;20477;-72
2021/07/25 08:44:21;;;;;;;13.52;7.22;;;;;;;31.28;65.01;101341.13;4981071;28;20512;-71
2021/07/25 08:47:13;;;;;;;13.48;7.32;;;;;;;31.14;60.63;101346.94;4966301;28;20087;-72
2021/07/25 08:50:01;;;;;;;10.43;5.93;;;;;;;31.12;61.49;101346.22;4996768;28;20036;-72
2021/07/25 08:52:52;;;;;;;14.90;6.43;;;;;;;31.52;61.29;101342.50;4984910;28;20026;-72
2021/07/25 08:55:38;;;;;;;10.40;6.47;;;;;;;31.66;60.49;101336.63;4996616;28;20058;-71
2021/07/25 08:58:28;;;;;;;24.40;6.35;;;;;;;31.93;59.26;101339.44;4997209;28;20033;-72
2021/07/25 09:01:14;;;;;;;13.80;6.63;;;;;;;31.88;57.10;101339.00;4997514;28;20101;-72
2021/07/25 09:04:02;;;;;;;11.38;6.30;;;;;;;31.38;58.87;101333.81;4997384;28;20474;-71
2021/07/25 09:06:49;;;;;;;8.73;5.93;;;;;;;31.69;59.25;101339.06;4983637;28;20034;-71
2021/07/25 09:09:35;;;;;;;8.23;5.72;;;;;;;31.26;59.14;101329.56;4996920;28;20033;-72
2021/07/25 09:12:22;;;;;;;9.30;5.70;;;;;;;31.20;59.17;101330.13;4996463;28;20450;-71
2021/07/25 09:15:11;;;;;;;8.48;5.53;;;;;;;31.92;57.55;101330.44;4997515;28;20049;-71
2021/07/25 09:17:58;;;;;;;10.63;5.90;;;;;;;31.74;57.76;101326.75;4997026;28;20042;-72
2021/07/25 09:20:44;;;;;;;10.15;5.05;;;;;;;32.38;54.85;101333.09;4983877;28;20019;-71
2021/07/25 09:23:30;;;;;;;11.50;5.97;;;;;;;32.04;55.77;101328.38;4996404;28;20366;-72
2021/07/25 09:26:15;;;;;;;9.13;5.65;;;;;;;31.90;56.92;101337.00;4996065;28;20026;-71
2021/07/25 09:29:22;;;;;;;9.70;5.55;;;;;;;31.34;58.52;101327.00;4996172;28;20030;-71
2021/07/25 09:32:17;;;;;;;9.43;6.15;;;;;;;31.57;62.38;101335.63;4983149;28;20034;-71
2021/07/25 09:35:03;;;;;;;11.05;5.60;;;;;;;31.64;59.41;101335.91;4983142;28;20521;-72
2021/07/25 09:37:51;;;;;;;10.68;5.47;;;;;;;31.61;61.68;101334.34;4983257;28;20048;-71
2021/07/25 09:40:38;;;;;;;14.63;6.10;;;;;;;31.84;61.48;101333.03;4996393;28;20438;-72
2021/07/25 09:43:24;;;;;;;13.25;5.20;;;;;;;31.43;61.59;101334.22;4996565;28;20034;-71
2021/07/25 09:46:10;;;;;;;10.52;5.45;;;;;;;31.93;59.68;101334.00;4995983;28;20370;-71
2021/07/25 09:48:59;;;;;;;10.73;5.60;;;;;;;31.58;59.89;101323.78;4995830;28;20097;-71
2021/07/25 09:51:46;;;;;;;8.82;5.13;;;;;;;31.63;58.92;101334.19;4996615;28;20068;-72
2021/07/25 09:54:31;;;;;;;12.00;5.40;;;;;;;31.05;60.76;101334.25;4982537;28;20026;-72
2021/07/25 09:57:17;;;;;;;8.70;4.75;;;;;;;31.34;57.49;101328.84;4995812;28;20066;-71
2021/07/25 10:00:08;;;;;;;6.63;4.38;;;;;;;31.28;55.75;101321.28;4994867;28;20135;-71
2021/07/25 10:02:54;;;;;;;7.97;4.53;;;;;;;31.13;54.85;101318.16;4995856;28;20466;-71
2021/07/25 10:05:40;;;;;;;12.25;4.72;;;;;;;31.77;54.12;101312.09;4996037;28;20378;-71
2021/07/25 10:08:26;;;;;;;6.70;3.70;;;;;;;31.73;47.29;101313.38;4996082;28;20041;-72
2021/07/25 10:11:21;;;;;;;8.90;3.83;;;;;;;31.96;43.66;101314.72;4995994;28;20081;-72
2021/07/25 10:14:07;;;;;;;5.50;3.10;;;;;;;31.48;42.34;101313.97;4995420;28;20378;-71
2021/07/25 10:16:55;;;;;;;6.22;2.97;;;;;;;31.69;41.72;101314.66;4995516;28;20042;-72
2021/07/25 10:19:42;;;;;;;7.18;3.22;;;;;;;31.92;40.80;101307.88;4995382;28;20033;-72
2021/07/25 10:22:29;;;;;;;7.10;3.05;;;;;;;31.65;40.54;101316.78;4995484;28;20038;-71
2021/07/25 10:25:16;;;;;;;5.50;3.30;;;;;;;31.60;41.20;101304.69;4996213;28;20029;-71
2021/07/25 10:28:03;;;;;;;7.60;3.40;;;;;;;31.94;39.51;101305.91;4995265;28;20438;-72
2021/07/25 10:30:51;;;;;;;8.13;3.72;;;;;;;31.33;40.61;101297.34;4994939;28;20042;-72
2021/07/25 10:33:38;;;;;;;6.53;3.60;;;;;;;31.59;40.34;101289.44;4995601;28;20041;-71
2021/07/25 10:36:24;;;;;;;4.53;3.50;;;;;;;32.20;39.20;101288.78;4995066;28;20058;-72
2021/07/25 10:39:10;;;;;;;6.07;3.60;;;;;;;31.37;40.50;101290.63;4995069;28;20037;-71
2021/07/25 10:42:01;;;;;;;6.90;3.90;;;;;;;31.53;41.85;101284.63;4995233;28;20154;-72
2021/07/25 10:44:47;;;;;;;7.65;3.65;;;;;;;31.57;42.25;101278.75;4995130;28;20113;-72
2021/07/25 10:47:33;;;;;;;6.85;3.85;;;;;;;31.91;42.21;101277.22;4994880;28;20030;-72
2021/07/25 10:50:20;;;;;;;6.40;3.70;;;;;;;31.87;41.80;101277.66;4995107;28;20387;-72
2021/07/25 10:53:06;;;;;;;8.73;3.85;;;;;;;31.63;41.82;101288.13;4995209;28;20029;-72
2021/07/25 10:55:52;;;;;;;8.45;4.05;;;;;;;31.47;41.67;101269.81;4994661;28;20031;-72
2021/07/25 10:58:54;;;;;;;7.65;4.30;;;;;;;31.21;43.63;101271.38;4995547;28;20072;-72
2021/07/25 11:01:44;;;;;;;7.60;3.80;;;;;;;31.39;43.02;101272.38;4995358;28;20034;-72
2021/07/25 11:04:47;;;;;;;5.40;3.83;;;;;;;31.67;44.83;101270.56;4994763;28;20030;-72
2021/07/25 11:07:35;;;;;;;8.20;3.72;;;;;;;32.10;44.14;101277.09;4994729;28;20027;-72
2021/07/25 11:10:35;;;;;;;11.00;4.45;;;;;;;32.01;45.17;101275.31;4995348;28;20104;-72
2021/07/25 11:13:38;;;;;;;7.63;4.20;;;;;;;32.56;42.99;101281.56;4996131;28;20030;-72
2021/07/25 11:16:30;;;;;;;7.75;4.80;;;;;;;32.27;44.79;101281.75;4994518;28;20054;-72
2021/07/25 11:19:15;;;;;;;8.95;4.32;;;;;;;32.13;45.20;101284.94;4994809;28;20120;-72
2021/07/25 11:22:01;;;;;;;9.27;4.43;;;;;;;32.27;46.06;101275.47;4994189;28;20093;-72
2021/07/25 11:24:47;;;;;;;7.10;4.00;;;;;;;31.92;43.51;101275.34;4994963;28;20050;-72
2021/07/25 11:27:46;;;;;;;7.85;4.07;;;;;;;31.48;43.87;101276.06;4980979;28;20041;-72
2021/07/25 11:30:51;;;;;;;6.95;4.07;;;;;;;31.93;45.21;101271.66;4995287;28;20043;-72
2021/07/25 11:33:37;;;;;;;9.15;3.90;;;;;;;31.97;44.79;101262.22;4994234;28;20112;-73
2021/07/25 11:36:24;;;;;;;7.43;4.20;;;;;;;31.65;43.29;101264.47;4995424;28;20040;-72
2021/07/25 11:39:11;;;;;;;9.60;4.18;;;;;;;32.29;42.68;101262.56;4981398;28;20041;-72
2021/07/25 11:41:58;;;;;;;9.85;4.10;;;;;;;32.58;42.41;101257.84;4994804;28;20370;-72
2021/07/25 11:44:44;;;;;;;7.28;4.35;;;;;;;32.96;41.31;101257.56;4994619;28;20041;-72
2021/07/25 11:47:30;;;;;;;8.73;4.32;;;;;;;32.70;39.35;101254.75;4994110;28;20026;-72
2021/07/25 11:50:43;;;;;;;8.75;4.10;;;;;;;32.63;40.03;101261.81;4994191;28;20109;-72
2021/07/25 11:53:41;;;;;;;4.82;3.40;;;;;;;33.25;37.39;101256.25;4994164;28;20041;-72
2021/07/25 11:56:28;;;;;;;12.98;3.70;;;;;;;33.04;37.02;101257.63;4994429;28;20113;-72
2021/07/25 11:59:14;;;;;;;6.65;3.20;;;;;;;32.83;37.20;101248.97;4995434;28;20370;-72
2021/07/25 12:02:00;;;;;;;10.85;3.58;;;;;;;33.39;35.88;101254.84;4994117;28;20435;-72
2021/07/25 12:04:46;;;;;;;6.00;3.70;;;;;;;33.40;34.94;101251.13;4994560;28;20030;-72
2021/07/25 12:07:34;;;;;;;6.57;2.70;;;;;;;32.60;34.88;101247.69;4994293;28;20088;-72
2021/07/25 12:10:30;;;;;;;5.85;2.97;;;;;;;31.92;35.61;101240.09;4993968;28;20018;-72
2021/07/25 12:13:18;;;;;;;5.65;3.10;;;;;;;33.04;34.70;101228.59;4994606;28;20034;-72
2021/07/25 12:16:04;;;;;;;6.15;3.10;;;;;;;33.63;33.99;101230.53;4993613;28;20438;-72
2021/07/25 12:18:50;;;;;;;3.55;2.70;;;;;;;33.30;33.96;101217.75;4994975;28;20041;-72
2021/07/25 12:21:37;;;;;;;3.28;2.25;;;;;;;33.22;32.29;101218.53;4994383;28;20057;-72
2021/07/25 12:24:25;;;;;;;4.43;2.70;;;;;;;33.44;31.76;101226.19;4998093;28;20494;-72
2021/07/25 12:28:00;;;;;;;5.70;2.58;;;;;;;33.19;30.06;101227.00;4997229;28;20073;-72
2021/07/25 12:30:52;;;;;;;3.97;2.20;;;;;;;33.54;31.48;101220.63;4920257;28;20068;-72
2021/07/25 12:33:38;;;;;;;6.60;2.33;;;;;;;33.51;30.00;101216.34;4997874;28;20038;-72
2021/07/25 12:36:31;;;;;;;4.57;2.47;;;;;;;33.64;30.78;101216.78;4997908;28;20031;-72
2021/07/25 12:39:18;;;;;;;5.65;2.40;;;;;;;33.23;31.97;101211.25;4997921;28;20026;-72
2021/07/25 12:42:04;;;;;;;5.00;2.53;;;;;;;34.20;30.89;101211.56;4983898;28;20359;-71
2021/07/25 12:44:50;;;;;;;5.00;2.30;;;;;;;33.52;30.46;101209.94;4997227;28;20336;-72